Time;durP1;ratioP1;P1;durP2;ratioP2;P2;SDS_P1;SDS_P2;PMS_P1;PMS_P2;Temp;Humidity;BMP_temperature;BMP_pressure;BME280_temperature;BME280_humidity;BME280_pressure;Samples;Min_cycle;Max_cycle;Signal;HPM_P1;HPM_P2
2022/08/12 00:43:41;;;;;;;8.90;7.62;;;;;;;22.21;73.20;99641.86;1667023;86;21127;-43
2022/08/12 00:48:48;;;;;;;8.75;7.28;;;;;;;22.16;73.24;99634.09;1642376;86;21117;-43
2022/08/12 00:51:15;;;;;;;7.85;7.22;;;;;;;22.13;73.35;99634.94;1666814;86;21050;-43
2022/08/12 00:53:42;;;;;;;11.43;7.92;;;;;;;22.12;73.38;99634.19;1667177;86;21535;-43
2022/08/12 00:56:09;;;;;;;8.33;7.53;;;;;;;22.10;73.36;99635.98;1666835;86;21425;-43
2022/08/12 00:58:37;;;;;;;9.03;7.60;;;;;;;22.10;73.37;99643.48;1666936;86;21079;-43
2022/08/12 01:01:07;;;;;;;8.78;7.40;;;;;;;22.09;73.39;99645.47;1667051;86;21147;-42
2022/08/12 01:11:54;;;;;;;8.18;7.33;;;;;;;22.05;73.42;99642.02;1667252;86;21057;-43
2022/08/12 01:14:22;;;;;;;8.43;7.55;;;;;;;22.05;73.46;99645.38;1666998;86;21235;-43
2022/08/12 01:16:51;;;;;;;9.23;7.75;;;;;;;22.04;73.44;99650.72;1667153;86;21021;-43
2022/08/12 01:19:23;;;;;;;11.05;7.08;;;;;;;22.04;73.50;99650.72;1666887;86;21004;-43
2022/08/12 01:22:24;;;;;;;9.20;7.42;;;;;;;22.03;73.45;99659.61;1667019;86;21042;-43
2022/08/12 01:25:08;;;;;;;8.73;7.58;;;;;;;22.03;73.43;99669.27;1654075;86;21100;-43
2022/08/12 01:27:37;;;;;;;15.75;7.53;;;;;;;21.99;73.44;99670.56;1666728;86;23137;-43
2022/08/12 01:30:07;;;;;;;8.10;7.05;;;;;;;21.97;73.50;99668.25;1667000;84;21013;-43
2022/08/12 01:32:36;;;;;;;10.50;7.35;;;;;;;21.99;73.50;99670.56;1667062;86;21642;-43
2022/08/12 01:35:13;;;;;;;10.80;7.30;;;;;;;21.98;73.48;99664.25;1666955;86;21550;-43
2022/08/12 01:38:00;;;;;;;10.43;7.03;;;;;;;21.99;73.47;99664.44;1666850;86;21105;-43
2022/08/12 01:40:30;;;;;;;8.03;7.20;;;;;;;21.99;73.46;99658.91;1666698;86;23164;-42
2022/08/12 01:45:23;;;;;;;8.55;7.67;;;;;;;22.02;73.44;99651.77;1815100;79;22720;-42
2022/08/12 01:48:17;;;;;;;8.15;7.33;;;;;;;21.91;73.57;99647.84;1788355;80;20929;-43
2022/08/12 01:51:01;;;;;;;7.85;7.05;;;;;;;21.91;73.59;99650.60;1788384;80;23131;-43
2022/08/12 01:53:33;;;;;;;7.60;6.85;;;;;;;21.90;73.61;99638.00;1788018;80;20972;-43
2022/08/12 01:56:02;;;;;;;11.50;7.47;;;;;;;21.90;73.68;99648.26;1772845;80;20901;-43
2022/08/12 02:01:25;;;;;;;8.23;7.40;;;;;;;21.88;73.66;99645.91;1788475;80;21474;-43
2022/08/12 02:14:22;;;;;;;8.55;7.05;;;;;;;21.79;73.87;99645.73;1765569;80;21424;-42
2022/08/12 02:17:45;;;;;;;8.20;7.25;;;;;;;21.78;73.87;99644.20;1788702;80;21005;-42
2022/08/12 02:20:33;;;;;;;7.97;7.17;;;;;;;21.74;73.98;99640.72;1788262;80;21196;-42
2022/08/12 02:23:00;;;;;;;10.20;7.20;;;;;;;21.71;74.09;99648.48;1719939;80;20952;-43
2022/08/12 02:25:35;;;;;;;8.25;7.40;;;;;;;21.69;74.10;99648.90;1788328;80;20976;-42
2022/08/12 02:28:03;;;;;;;8.35;7.37;;;;;;;21.72;74.07;99645.13;1787491;80;21039;-43
2022/08/12 02:30:31;;;;;;;8.13;7.25;;;;;;;21.71;74.04;99640.20;1788255;80;21510;-43
2022/08/12 02:33:00;;;;;;;12.10;7.33;;;;;;;21.72;74.06;99642.36;1788438;80;21206;-43
2022/08/12 02:35:30;;;;;;;8.25;7.17;;;;;;;21.73;74.05;99642.55;1788316;80;20964;-43
2022/08/12 02:37:58;;;;;;;;;;;;;;;21.73;74.05;99645.30;1791055;80;21589;-43
2022/08/12 02:40:27;;;;;;;9.63;7.60;;;;;;;21.72;74.04;99637.63;1788232;80;20521;-43
2022/08/12 02:43:41;;;;;;;9.55;6.87;;;;;;;21.62;74.29;99640.01;1788420;80;21507;-43
2022/08/12 02:46:10;;;;;;;8.35;7.15;;;;;;;21.63;74.27;99632.70;1788532;80;21484;-42
2022/08/12 02:48:41;;;;;;;;;;;;;;;21.62;74.41;99635.27;1791079;80;21015;-42
2022/08/12 02:51:10;;;;;;;9.70;7.60;;;;;;;21.64;74.33;99637.58;1788437;80;20140;-43
2022/08/12 02:53:38;;;;;;;8.40;7.25;;;;;;;21.56;74.49;99638.35;1788268;80;20937;-43
2022/08/12 02:56:06;;;;;;;12.85;7.67;;;;;;;21.58;74.42;99631.81;1787646;80;21516;-42
2022/08/12 02:58:34;;;;;;;7.97;7.17;;;;;;;21.58;74.48;99627.67;1788124;80;21115;-43
2022/08/12 03:01:03;;;;;;;12.23;7.05;;;;;;;21.61;74.41;99628.80;1787550;80;21064;-43
2022/08/12 03:03:33;;;;;;;7.60;6.90;;;;;;;21.61;74.37;99642.59;1787830;80;20976;-43
2022/08/12 03:06:05;;;;;;;8.70;7.08;;;;;;;21.60;74.33;99629.39;1787854;80;20965;-43
2022/08/12 03:08:43;;;;;;;9.70;7.25;;;;;;;21.60;74.33;99629.99;1787916;80;21004;-43
2022/08/12 03:11:16;;;;;;;8.88;7.37;;;;;;;21.61;74.44;99624.05;1786393;80;21875;-43
2022/08/12 03:13:59;;;;;;;7.87;6.97;;;;;;;21.62;74.40;99628.97;1781755;80;21566;-42
2022/08/12 03:16:29;;;;;;;10.05;7.15;;;;;;;21.61;74.40;99628.19;1783188;80;21093;-43
2022/08/12 03:18:56;;;;;;;8.00;7.15;;;;;;;21.62;74.37;99624.84;1788378;80;21033;-42
2022/08/12 03:21:24;;;;;;;9.10;7.95;;;;;;;21.64;74.31;99622.41;1787680;80;21021;-42
2022/08/12 03:23:54;;;;;;;9.55;7.30;;;;;;;21.65;74.29;99620.61;1787685;80;21875;-43
2022/08/12 03:26:24;;;;;;;11.00;7.03;;;;;;;21.66;74.21;99627.69;1787622;80;21515;-43
2022/08/12 03:28:53;;;;;;;7.85;7.08;;;;;;;21.67;74.25;99627.09;1787605;80;21004;-43
2022/08/12 03:31:32;;;;;;;7.35;6.53;;;;;;;21.70;74.21;99630.36;1787610;80;21000;-43
2022/08/12 03:34:11;;;;;;;7.72;7.00;;;;;;;21.74;74.11;99627.52;1786681;80;21115;-43
2022/08/12 03:36:40;;;;;;;10.68;7.12;;;;;;;21.76;74.04;99627.28;1787684;80;21123;-42
2022/08/12 03:41:51;;;;;;;8.20;7.40;;;;;;;21.83;73.94;99625.75;1787485;80;20995;-42
2022/08/12 04:01:26;;;;;;;8.18;7.37;;;;;;;22.04;72.94;99628.64;1782517;80;21661;-42
2022/08/12 04:03:53;;;;;;;9.15;7.03;;;;;;;22.07;72.97;99627.16;1782321;80;21228;-43
2022/08/12 04:06:26;;;;;;;12.37;7.37;;;;;;;22.13;72.81;99632.17;1782624;80;21522;-42
2022/08/12 04:08:57;;;;;;;9.13;7.30;;;;;;;22.17;72.54;99641.95;1782595;80;21012;-43
2022/08/12 04:14:21;;;;;;;7.28;6.58;;;;;;;22.23;72.27;99651.26;1782751;80;21340;-43
2022/08/12 04:16:48;;;;;;;8.10;7.15;;;;;;;22.29;72.20;99652.91;1782430;80;21977;-43
2022/08/12 04:19:16;;;;;;;7.58;6.75;;;;;;;22.34;72.06;99653.77;1782563;80;21531;-43
2022/08/12 04:21:43;;;;;;;8.33;7.40;;;;;;;22.40;71.95;99658.35;1782670;80;21487;-43
2022/08/12 04:24:11;;;;;;;10.20;7.37;;;;;;;22.46;71.72;99656.60;1782384;80;20921;-43
2022/08/12 04:26:40;;;;;;;9.68;7.30;;;;;;;22.49;71.36;99663.27;1782456;80;21029;-43
2022/08/12 04:29:09;;;;;;;;;;;;;;;22.52;71.25;99663.17;1784984;80;21146;-43
2022/08/12 04:31:40;;;;;;;10.75;7.15;;;;;;;22.55;70.97;99671.22;1782591;80;20132;-43
2022/08/12 04:34:10;;;;;;;7.78;7.00;;;;;;;22.51;71.07;99667.77;1781985;80;21017;-43
2022/08/12 04:36:39;;;;;;;7.80;7.00;;;;;;;22.54;70.94;99655.84;1782234;80;21025;-43
2022/08/12 04:39:08;;;;;;;8.95;7.05;;;;;;;22.56;70.83;99656.16;1783004;80;21005;-43
2022/08/12 04:41:36;;;;;;;8.43;7.55;;;;;;;22.60;70.75;99656.09;1782630;80;21263;-42
2022/08/12 04:44:05;;;;;;;8.20;7.40;;;;;;;22.63;70.59;99667.05;1782137;80;20968;-43
2022/08/12 04:46:33;;;;;;;8.93;7.90;;;;;;;22.66;70.37;99671.70;1782061;80;21515;-43
2022/08/12 04:49:01;;;;;;;8.08;7.17;;;;;;;22.68;70.23;99669.30;1782227;80;21351;-43
2022/08/12 04:51:28;;;;;;;7.70;7.00;;;;;;;22.68;70.30;99667.91;1782356;80;20973;-43
2022/08/12 04:53:56;;;;;;;8.10;7.40;;;;;;;22.71;70.35;99660.16;1782384;80;21248;-42
2022/08/12 04:56:23;;;;;;;8.10;7.20;;;;;;;22.76;70.10;99657.47;1782386;80;20922;-43
2022/08/12 04:58:50;;;;;;;9.38;8.15;;;;;;;22.77;69.99;99665.34;1782579;80;21020;-43
2022/08/12 05:01:18;;;;;;;9.83;7.25;;;;;;;22.78;69.66;99655.06;1782430;80;20929;-43
2022/08/12 05:03:45;;;;;;;8.35;7.22;;;;;;;22.80;69.64;99667.85;1782635;80;21570;-43
2022/08/12 05:06:12;;;;;;;8.20;7.37;;;;;;;22.82;69.87;99673.11;1782303;80;21226;-43
2022/08/12 05:08:39;;;;;;;11.20;8.13;;;;;;;22.86;70.02;99671.02;1782234;80;21004;-43
2022/08/12 05:11:07;;;;;;;8.08;6.85;;;;;;;22.91;70.02;99664.96;1782322;80;21048;-43
2022/08/12 05:13:37;;;;;;;10.58;7.65;;;;;;;22.98;69.70;99672.91;1782498;80;20918;-43
2022/08/12 05:16:06;;;;;;;8.88;7.25;;;;;;;23.03;69.44;99662.09;1782356;80;21048;-43
2022/08/12 05:18:35;;;;;;;9.10;7.35;;;;;;;23.08;69.35;99659.41;1782674;80;21784;-43
2022/08/12 05:21:02;;;;;;;10.48;7.92;;;;;;;23.13;69.11;99659.65;1782328;80;20969;-43
2022/08/12 05:23:33;;;;;;;9.70;7.40;;;;;;;23.17;69.09;99663.69;1782132;80;20921;-43
2022/08/12 05:25:59;;;;;;;8.47;7.03;;;;;;;23.22;68.98;99657.63;1781340;80;22968;-42
2022/08/12 05:28:27;;;;;;;9.03;7.57;;;;;;;23.28;68.74;99666.95;1782728;80;20986;-43
2022/08/12 05:30:55;;;;;;;9.55;7.40;;;;;;;23.33;68.70;99658.11;1777091;80;21206;-43
2022/08/12 05:33:25;;;;;;;9.95;7.37;;;;;;;23.38;68.43;99658.33;1782222;80;21520;-43
2022/08/12 05:35:51;;;;;;;10.32;7.55;;;;;;;23.46;68.25;99646.49;1782818;80;21014;-43
2022/08/12 05:41:17;;;;;;;11.45;7.97;;;;;;;23.58;67.67;99649.09;1782563;80;20999;-43
2022/08/12 05:43:34;;;;;;;12.45;7.45;;;;;;;23.60;67.39;99646.08;1780063;80;23192;-43
2022/08/12 05:46:02;;;;;;;8.25;7.45;;;;;;;23.68;67.44;99649.39;1782375;80;20988;-43
2022/08/12 05:48:29;;;;;;;8.83;7.80;;;;;;;23.75;67.17;99645.82;1782283;80;21005;-43
2022/08/12 05:50:56;;;;;;;9.78;7.08;;;;;;;23.82;67.31;99645.59;1782400;80;21041;-43
2022/08/12 05:53:24;;;;;;;9.40;7.25;;;;;;;23.89;67.21;99639.06;1779449;80;21538;-42
2022/08/12 05:55:52;;;;;;;9.70;7.47;;;;;;;23.96;67.02;99635.31;1778080;80;21143;-42
2022/08/12 05:58:20;;;;;;;9.33;7.37;;;;;;;24.01;66.47;99629.22;1782122;80;20949;-43
2022/08/12 06:00:47;;;;;;;8.23;7.08;;;;;;;24.03;66.12;99636.45;1782249;80;20886;-43
2022/08/12 06:03:16;;;;;;;9.03;7.33;;;;;;;24.06;66.22;99645.28;1763651;80;21042;-43
2022/08/12 06:05:45;;;;;;;10.03;7.45;;;;;;;24.08;65.25;99640.06;1756178;80;21095;-42
2022/08/12 06:08:11;;;;;;;10.85;7.70;;;;;;;24.11;65.44;99635.00;1781952;80;21142;-43
2022/08/12 06:10:39;;;;;;;8.68;7.40;;;;;;;24.15;65.55;99639.84;1781929;80;20960;-42
2022/08/12 06:13:06;;;;;;;7.42;6.83;;;;;;;24.20;65.07;99648.41;1782387;80;21511;-43
2022/08/12 06:15:36;;;;;;;8.88;7.65;;;;;;;24.24;64.72;99655.21;1782047;80;21355;-44
2022/08/12 06:18:07;;;;;;;9.73;7.20;;;;;;;24.27;64.60;99675.09;1782506;80;26772;-43
2022/08/12 06:20:34;;;;;;;13.65;7.15;;;;;;;24.30;64.66;99668.68;1762671;80;21066;-43
2022/08/12 06:23:01;;;;;;;9.03;7.67;;;;;;;24.34;64.40;99656.09;1754525;80;20973;-43
2022/08/12 06:25:28;;;;;;;8.45;7.55;;;;;;;24.35;64.13;99658.39;1744534;82;20977;-43
2022/08/12 06:27:57;;;;;;;8.63;7.70;;;;;;;24.38;64.05;99664.45;1744859;82;21610;-43
2022/08/12 06:30:28;;;;;;;7.87;7.08;;;;;;;24.40;64.17;99661.98;1745902;82;21073;-43
2022/08/12 06:32:55;;;;;;;10.25;8.13;;;;;;;24.46;64.15;99660.82;1754575;80;21135;-43
2022/08/12 06:35:25;;;;;;;10.60;7.60;;;;;;;24.52;64.53;99670.91;1745413;82;20945;-42
2022/08/12 06:37:54;;;;;;;9.15;7.35;;;;;;;24.59;63.99;99667.14;1745913;82;20941;-43
2022/08/12 06:42:46;;;;;;;;;;;;;;;24.66;63.83;99673.81;1776471;80;21043;-42
2022/08/12 06:42:53;;;;;;;8.78;7.80;;;;;;;24.73;63.48;99679.75;1777239;80;20199;-43
2022/08/12 06:45:20;;;;;;;9.70;7.72;;;;;;;24.71;63.55;99684.34;1779424;80;21233;-43
2022/08/12 06:47:47;;;;;;;8.60;7.70;;;;;;;24.80;62.99;99678.88;1774346;80;21607;-43
2022/08/12 06:50:15;;;;;;;8.45;7.55;;;;;;;24.89;62.88;99676.21;1773944;80;21411;-43
2022/08/12 06:52:43;;;;;;;9.83;8.15;;;;;;;24.96;62.96;99673.81;1774182;80;21611;-42
2022/08/12 06:55:19;;;;;;;9.68;7.87;;;;;;;25.01;62.19;99666.31;1774061;80;20982;-43
2022/08/12 06:58:02;;;;;;;12.03;7.70;;;;;;;25.02;62.28;99669.25;1736934;82;21250;-43
2022/08/12 07:00:32;;;;;;;8.45;7.50;;;;;;;25.03;62.59;99661.07;1774080;80;20990;-43
2022/08/12 07:03:00;;;;;;;9.10;8.20;;;;;;;25.04;62.61;99666.18;1774261;80;21073;-42
2022/08/12 07:05:27;;;;;;;13.88;8.18;;;;;;;25.05;62.55;99661.41;1774016;80;21092;-43
2022/08/12 07:08:05;;;;;;;8.60;7.80;;;;;;;25.02;62.05;99641.52;1768330;80;21060;-45
2022/08/12 07:10:32;;;;;;;11.10;8.73;;;;;;;24.99;62.16;99641.01;1741689;82;21141;-45
2022/08/12 07:13:01;;;;;;;9.73;8.45;;;;;;;24.92;62.21;99635.73;1741810;82;21021;-45
2022/08/12 07:15:29;;;;;;;8.17;7.47;;;;;;;24.89;62.63;99639.38;1742061;82;21084;-45
2022/08/12 07:18:10;;;;;;;10.08;8.10;;;;;;;24.92;62.72;99646.83;1742008;82;20931;-45
2022/08/12 07:20:36;;;;;;;12.15;7.70;;;;;;;24.97;62.54;99646.25;1741900;81;21046;-45
2022/08/12 07:23:04;;;;;;;11.80;8.43;;;;;;;25.03;62.14;99651.36;1731373;82;21070;-45
2022/08/12 07:25:38;;;;;;;10.00;8.73;;;;;;;25.09;61.97;99657.89;1741703;82;20981;-45
2022/08/12 07:28:06;;;;;;;10.80;8.10;;;;;;;25.10;61.64;99652.51;1741306;81;21485;-45
2022/08/12 07:30:37;;;;;;;9.73;7.87;;;;;;;25.13;61.59;99652.20;1741882;82;20970;-46
2022/08/12 07:33:07;;;;;;;10.93;8.30;;;;;;;25.15;61.79;99651.93;1766625;80;20994;-45
2022/08/12 07:35:46;;;;;;;;;;;;;;;25.16;61.96;99647.94;1764418;80;22483;-44
2022/08/12 07:40:43;;;;;;;10.13;8.20;;;;;;;25.06;61.86;99643.54;1808251;77;22048;-42
2022/08/12 07:43:11;;;;;;;10.10;8.33;;;;;;;25.00;61.78;99639.18;1780975;80;20935;-43
2022/08/12 07:45:39;;;;;;;12.80;8.58;;;;;;;24.97;61.73;99645.64;1775533;80;21238;-43
2022/08/12 07:48:06;;;;;;;9.60;8.58;;;;;;;24.93;61.76;99643.58;1780761;80;20929;-43
2022/08/12 07:50:35;;;;;;;9.65;8.58;;;;;;;24.91;61.87;99636.95;1780103;79;21000;-43
2022/08/12 07:53:02;;;;;;;9.30;8.45;;;;;;;24.90;62.55;99634.00;1781032;80;21452;-42
2022/08/12 07:55:30;;;;;;;10.45;8.30;;;;;;;24.92;62.93;99638.50;1780590;80;21586;-43
2022/08/12 07:57:58;;;;;;;8.73;7.95;;;;;;;24.94;62.68;99626.33;1771419;80;21137;-43
2022/08/12 08:00:31;;;;;;;11.38;8.73;;;;;;;24.96;62.55;99628.05;1778520;80;21523;-43
2022/08/12 08:02:58;;;;;;;10.25;8.05;;;;;;;25.04;62.68;99626.56;1765248;80;20999;-43
2022/08/12 08:05:30;;;;;;;10.93;8.38;;;;;;;25.18;62.93;99628.05;1772827;80;21356;-43
2022/08/12 08:08:00;;;;;;;11.75;8.35;;;;;;;25.35;62.22;99619.70;1716248;83;21056;-43
2022/08/12 08:10:28;;;;;;;9.63;8.08;;;;;;;25.51;61.52;99621.63;1774582;80;21235;-43
2022/08/12 08:12:58;;;;;;;10.15;8.55;;;;;;;25.66;60.51;99602.45;1776162;80;21507;-43
2022/08/12 08:15:29;;;;;;;10.58;8.20;;;;;;;25.74;59.90;99608.52;1735457;82;21027;-43
2022/08/12 08:18:02;;;;;;;13.48;8.93;;;;;;;25.79;59.44;99611.48;1738149;82;21060;-43
2022/08/12 08:20:40;;;;;;;8.70;7.75;;;;;;;25.84;59.34;99602.55;1738032;82;21111;-43
2022/08/12 08:23:10;;;;;;;8.68;7.87;;;;;;;25.96;59.35;99593.93;1732829;82;21898;-43
2022/08/12 08:25:38;;;;;;;11.30;8.70;;;;;;;26.07;58.61;99592.11;1758056;80;21005;-43
2022/08/12 08:28:11;;;;;;;22.20;11.28;;;;;;;26.10;58.59;99594.74;1719859;83;21606;-43
2022/08/12 08:30:44;;;;;;;9.83;8.90;;;;;;;26.17;59.21;99601.41;1771234;80;21041;-43
2022/08/12 08:33:13;;;;;;;11.28;8.40;;;;;;;26.24;59.09;99607.30;1719281;83;21061;-43
2022/08/12 08:35:41;;;;;;;13.43;7.73;;;;;;;26.32;59.17;99610.74;1730727;83;21194;-47
2022/08/12 08:38:12;;;;;;;9.13;7.80;;;;;;;26.39;59.06;99613.22;1717354;83;20965;-45
2022/08/12 08:43:27;;;;;;;10.03;9.05;;;;;;;26.57;58.57;99630.56;1759886;81;21582;-45
2022/08/12 08:45:55;;;;;;;11.05;8.45;;;;;;;26.61;57.50;99635.34;1760620;81;21502;-45
2022/08/12 08:48:23;;;;;;;10.78;7.62;;;;;;;26.69;57.40;99628.24;1760920;80;21119;-45
2022/08/12 08:50:50;;;;;;;10.63;7.87;;;;;;;26.79;57.44;99620.67;1789510;80;20937;-45
2022/08/12 08:53:17;;;;;;;10.08;8.05;;;;;;;26.90;56.77;99621.02;1788850;80;20925;-45
2022/08/12 08:55:44;;;;;;;9.28;8.40;;;;;;;26.99;56.19;99617.45;1788852;80;20953;-45
2022/08/12 08:58:11;;;;;;;8.93;8.00;;;;;;;27.06;56.37;99624.86;1788891;80;21558;-45
2022/08/12 09:00:39;;;;;;;8.98;7.78;;;;;;;27.14;56.06;99626.73;1788939;80;21140;-45
2022/08/12 09:03:07;;;;;;;10.90;8.40;;;;;;;27.19;55.68;99615.74;1788924;80;20929;-45
2022/08/12 09:05:34;;;;;;;9.08;8.05;;;;;;;27.21;55.99;99614.64;1789153;80;21003;-45
2022/08/12 09:08:04;;;;;;;10.90;8.40;;;;;;;27.27;55.89;99619.58;1788824;80;21021;-45
2022/08/12 09:10:32;;;;;;;10.63;8.83;;;;;;;27.32;55.79;99617.56;1789181;80;21045;-45
2022/08/12 09:15:46;;;;;;;9.40;8.48;;;;;;;27.37;55.85;99622.50;1788370;80;21044;-46
2022/08/12 09:18:14;;;;;;;9.38;8.38;;;;;;;27.47;56.00;99608.71;1788527;80;20976;-43
2022/08/12 09:20:42;;;;;;;10.53;8.60;;;;;;;27.59;55.26;99614.11;1788851;80;21087;-43
2022/08/12 09:23:10;;;;;;;9.40;8.33;;;;;;;27.69;55.56;99606.52;1789091;80;21032;-43
2022/08/12 09:25:42;;;;;;;9.28;8.10;;;;;;;27.75;55.32;99594.88;1789161;80;21206;-43
2022/08/12 09:28:09;;;;;;;11.10;8.30;;;;;;;27.75;55.00;99608.80;1789355;80;20996;-43
2022/08/12 09:30:44;;;;;;;8.88;8.05;;;;;;;27.74;55.13;99608.64;1766813;80;21050;-43
2022/08/12 09:33:11;;;;;;;10.58;8.25;;;;;;;27.76;55.26;99611.74;1765104;80;21659;-42
2022/08/12 09:35:43;;;;;;;10.00;8.38;;;;;;;27.80;55.58;99613.73;1765742;80;21042;-43
2022/08/12 09:38:07;;;;;;;10.70;8.33;;;;;;;27.86;54.33;99614.65;1765179;80;23205;-43
2022/08/12 09:40:35;;;;;;;9.73;8.45;;;;;;;27.81;55.00;99616.68;1726307;81;21047;-43
2022/08/12 09:45:50;;;;;;;10.80;8.35;;;;;;;27.87;54.72;99614.03;1732617;82;21087;-46
2022/08/12 09:48:18;;;;;;;8.83;7.65;;;;;;;27.94;54.66;99615.84;1726617;82;21048;-46
2022/08/12 09:50:48;;;;;;;12.45;8.73;;;;;;;28.04;54.88;99622.14;1782286;80;21278;-46
2022/08/12 09:53:23;;;;;;;;;;;;;;;28.17;54.82;99623.36;1785725;80;20996;-43
2022/08/12 09:55:52;;;;;;;9.95;8.80;;;;;;;28.35;54.40;99635.18;1783110;80;20120;-43
2022/08/12 09:58:40;;;;;;;12.63;9.08;;;;;;;28.37;53.75;99631.92;1782907;80;21036;-43
2022/08/12 10:00:53;;;;;;;10.28;9.05;;;;;;;28.45;53.75;99640.85;1780058;80;21022;-43
2022/08/12 10:03:23;;;;;;;11.88;9.23;;;;;;;28.50;53.10;99647.80;1783085;80;23120;-43
2022/08/12 10:05:50;;;;;;;10.15;8.93;;;;;;;28.45;52.82;99642.87;1783202;80;20970;-43
2022/08/12 10:08:17;;;;;;;10.55;9.20;;;;;;;28.35;51.95;99639.98;1783126;80;20967;-43
2022/08/12 10:13:40;;;;;;;11.83;9.63;;;;;;;28.12;52.68;99629.58;1778089;80;21088;-42
2022/08/12 10:16:12;;;;;;;9.63;8.73;;;;;;;28.02;52.96;99644.93;1764213;80;21234;-43
2022/08/12 10:18:42;;;;;;;11.03;9.55;;;;;;;27.99;53.61;99644.46;1759381;81;20936;-43
2022/08/12 10:21:16;;;;;;;10.53;9.53;;;;;;;27.96;53.81;99645.41;1760598;80;20955;-43
2022/08/12 10:23:46;;;;;;;13.62;9.35;;;;;;;27.96;53.95;99642.63;1754316;81;21001;-43
2022/08/12 10:31:53;;;;;;;10.85;9.43;;;;;;;28.32;54.52;99630.53;1783399;80;20972;-43
2022/08/12 10:34:21;;;;;;;9.60;8.70;;;;;;;28.68;53.51;99630.15;1782040;80;21027;-43
2022/08/12 10:36:49;;;;;;;11.40;9.65;;;;;;;28.99;52.99;99639.56;1783122;80;21680;-43
2022/08/12 10:39:18;;;;;;;11.90;9.43;;;;;;;29.22;52.50;99642.28;1779412;80;21451;-43
2022/08/12 10:44:32;;;;;;;11.08;9.20;;;;;;;29.37;51.03;99629.77;1685224;85;20937;-43
2022/08/12 10:46:59;;;;;;;10.48;9.23;;;;;;;29.29;51.02;99632.12;1738067;82;21578;-43
2022/08/12 10:49:27;;;;;;;11.00;9.80;;;;;;;29.12;51.31;99626.09;1732609;82;21507;-43
2022/08/12 10:51:55;;;;;;;10.18;9.18;;;;;;;28.98;51.67;99619.86;1723819;83;21060;-44
2022/08/12 10:54:22;;;;;;;10.48;9.38;;;;;;;28.87;52.05;99618.40;1746159;82;21223;-45
2022/08/12 10:56:50;;;;;;;10.53;9.43;;;;;;;28.80;52.70;99620.18;1728711;82;21032;-45
2022/08/12 10:59:18;;;;;;;12.20;9.30;;;;;;;28.74;52.94;99627.66;1723772;83;20983;-46
2022/08/12 11:01:45;;;;;;;10.72;9.63;;;;;;;28.65;52.80;99634.67;1746591;82;21046;-46
2022/08/12 11:04:12;;;;;;;10.95;9.13;;;;;;;28.51;53.08;99636.80;1733944;82;21025;-46
2022/08/12 11:06:46;;;;;;;11.03;9.90;;;;;;;28.36;53.33;99647.11;1724078;83;21139;-46
2022/08/12 11:09:17;;;;;;;11.93;9.68;;;;;;;28.17;54.09;99652.02;1746111;82;21485;-46
2022/08/12 11:11:47;;;;;;;10.45;9.45;;;;;;;27.95;54.91;99650.83;1733412;82;20909;-46
2022/08/12 11:14:27;;;;;;;10.53;9.50;;;;;;;27.72;55.95;99653.55;1723998;83;21020;-46
2022/08/12 11:16:47;;;;;;;10.88;9.85;;;;;;;27.51;56.72;99647.72;1744596;82;20982;-46
2022/08/12 11:19:14;;;;;;;16.73;10.32;;;;;;;27.31;57.83;99649.42;1733425;82;23171;-46
2022/08/12 11:21:41;;;;;;;12.10;10.15;;;;;;;27.18;58.50;99650.37;1723696;83;21517;-46
2022/08/12 11:24:08;;;;;;;11.03;9.90;;;;;;;27.09;58.88;99646.83;1719527;83;21049;-46
2022/08/12 11:26:35;;;;;;;12.37;10.13;;;;;;;27.01;59.06;99647.00;1739167;81;20944;-46
2022/08/12 11:29:03;;;;;;;11.57;10.45;;;;;;;26.89;59.46;99643.12;1719477;83;21291;-46
2022/08/12 11:31:31;;;;;;;11.15;10.05;;;;;;;26.79;59.75;99645.71;1730278;82;21138;-46
2022/08/12 11:33:59;;;;;;;14.10;10.50;;;;;;;26.72;60.02;99643.99;1733491;82;21530;-46
2022/08/12 11:36:26;;;;;;;16.80;10.53;;;;;;;26.64;60.39;99642.76;1751386;82;21035;-46
2022/08/12 11:38:54;;;;;;;16.35;10.93;;;;;;;26.59;60.58;99643.98;1733518;82;21387;-46
2022/08/12 11:41:21;;;;;;;11.85;10.53;;;;;;;26.54;60.84;99646.76;1751295;80;21602;-46
2022/08/12 11:43:48;;;;;;;12.10;10.82;;;;;;;26.50;61.08;99650.92;1751576;82;21926;-46
2022/08/12 11:46:18;;;;;;;15.18;11.63;;;;;;;26.45;61.33;99639.02;1751484;82;21568;-46
2022/08/12 11:48:45;;;;;;;13.20;10.75;;;;;;;26.42;61.57;99634.39;1751863;82;21024;-46
2022/08/12 11:51:12;;;;;;;13.20;11.50;;;;;;;26.40;61.47;99626.50;1755488;81;21084;-46
2022/08/12 11:53:39;;;;;;;15.83;12.58;;;;;;;26.35;61.74;99601.48;1746031;82;21543;-46
2022/08/12 11:56:07;;;;;;;13.18;11.00;;;;;;;26.33;62.28;99615.08;1733705;82;21259;-46
2022/08/12 11:58:35;;;;;;;12.68;11.38;;;;;;;26.30;62.55;99629.10;1723986;83;21056;-46
2022/08/12 12:01:02;;;;;;;12.23;10.98;;;;;;;26.26;62.28;99626.48;1717561;83;21029;-46
2022/08/12 12:03:29;;;;;;;12.82;11.28;;;;;;;26.24;62.41;99628.92;1723543;83;21589;-46
2022/08/12 12:05:56;;;;;;;12.50;11.20;;;;;;;26.23;62.50;99638.52;1719741;83;21005;-46
2022/08/12 12:08:26;;;;;;;13.75;10.75;;;;;;;26.21;62.63;99649.31;1723921;83;21131;-45
2022/08/12 12:10:53;;;;;;;12.23;10.80;;;;;;;26.20;62.60;99651.13;1715515;83;21027;-45
2022/08/12 12:13:20;;;;;;;12.82;11.43;;;;;;;26.16;62.63;99651.27;1718834;83;21009;-45
2022/08/12 12:15:47;;;;;;;13.25;11.30;;;;;;;26.13;62.75;99649.42;1723523;83;21617;-45
2022/08/12 12:18:22;;;;;;;12.43;11.12;;;;;;;26.11;62.79;99646.31;1748548;81;21016;-45
2022/08/12 12:20:50;;;;;;;13.25;11.63;;;;;;;26.11;62.80;99638.59;1725595;81;21260;-45
2022/08/12 12:23:18;;;;;;;12.40;11.20;;;;;;;26.10;62.74;99647.54;1723529;81;20980;-45
2022/08/12 12:25:45;;;;;;;13.32;11.93;;;;;;;26.08;62.68;99643.08;1702675;81;21060;-45
2022/08/12 12:28:12;;;;;;;12.70;11.48;;;;;;;26.08;62.87;99647.23;1725567;81;21036;-45
2022/08/12 12:30:39;;;;;;;12.85;10.30;;;;;;;26.07;62.96;99647.08;1725874;81;20996;-45
2022/08/12 12:33:08;;;;;;;12.80;11.10;;;;;;;26.04;62.81;99650.78;1719508;83;21218;-45
2022/08/12 12:35:35;;;;;;;13.93;11.12;;;;;;;26.01;63.02;99649.51;1724579;81;20924;-45
2022/08/12 12:38:04;;;;;;;15.00;11.43;;;;;;;25.96;62.59;99639.16;1696974;83;21051;-45
2022/08/12 12:40:32;;;;;;;12.90;11.38;;;;;;;25.92;62.47;99646.86;1706785;83;21041;-45
2022/08/12 12:42:59;;;;;;;12.60;11.40;;;;;;;25.90;62.26;99647.92;1736804;82;21076;-45
2022/08/12 12:45:27;;;;;;;11.73;10.63;;;;;;;25.85;62.38;99649.91;1736588;82;21237;-45
2022/08/12 12:47:56;;;;;;;12.13;10.98;;;;;;;25.81;62.43;99641.55;1737734;82;21043;-45
2022/08/12 12:50:25;;;;;;;12.30;11.10;;;;;;;25.79;62.46;99636.47;1737517;82;21379;-45
2022/08/12 12:52:52;;;;;;;13.68;12.03;;;;;;;25.78;62.31;99636.92;1726271;81;21069;-45
2022/08/12 12:55:20;;;;;;;13.03;11.30;;;;;;;25.74;62.24;99641.23;1732543;82;21053;-45
2022/08/12 12:57:47;;;;;;;12.75;11.10;;;;;;;25.72;62.34;99642.90;1730926;82;21285;-45
2022/08/12 13:00:20;;;;;;;12.98;11.40;;;;;;;25.72;62.68;99642.90;1735175;82;21030;-45
2022/08/12 13:02:55;;;;;;;13.90;11.33;;;;;;;25.74;62.62;99634.91;1735226;82;21079;-45
2022/08/12 13:05:26;;;;;;;12.03;10.82;;;;;;;25.75;62.42;99638.62;1724032;83;21055;-45
2022/08/12 13:07:55;;;;;;;13.85;11.25;;;;;;;25.77;62.53;99638.92;1726539;82;21060;-45
2022/08/12 13:10:24;;;;;;;16.32;10.93;;;;;;;25.80;62.36;99641.42;1752365;80;23106;-45
2022/08/12 13:12:52;;;;;;;12.63;11.25;;;;;;;25.82;62.25;99637.55;1725611;83;21016;-45
2022/08/12 13:15:20;;;;;;;12.07;10.88;;;;;;;25.83;62.29;99639.11;1725056;83;20941;-45
2022/08/12 13:17:55;;;;;;;13.72;11.03;;;;;;;25.83;62.66;99636.33;1760451;80;20932;-45
2022/08/12 13:20:22;;;;;;;13.22;10.85;;;;;;;25.85;62.36;99632.49;1770586;81;21678;-45
2022/08/12 13:22:49;;;;;;;13.68;10.45;;;;;;;25.87;62.49;99632.79;1758898;80;21294;-45
2022/08/12 13:25:18;;;;;;;12.47;11.28;;;;;;;25.88;62.43;99632.95;1726857;83;21031;-45
2022/08/12 13:27:47;;;;;;;13.28;11.60;;;;;;;25.87;62.09;99634.95;1724105;83;21001;-45
2022/08/12 13:30:22;;;;;;;16.55;12.15;;;;;;;25.89;62.37;99633.90;1722738;83;21009;-45
2022/08/12 13:32:54;;;;;;;15.20;11.35;;;;;;;25.90;62.27;99631.25;1722145;83;21018;-45
2022/08/12 13:35:21;;;;;;;12.50;11.10;;;;;;;25.92;62.35;99635.75;1706784;84;21817;-45
2022/08/12 13:37:53;;;;;;;15.08;11.33;;;;;;;25.94;62.32;99640.86;1764814;80;21579;-45